Aérodrome :
LOGIN :

S'inscrire | Disclaimer

   EN    FR    IT 

 










Légende :    VFR   VFR Marginal   IFR   IFR Intensif   IFR Très Intensif
Visi : 
Plafond : 
>= 8 km
>= 3000ft
5 à 8 km
1000 à 3000 ft
1500m à 5 km
500 à 1000 ft
800 à 1500m
200 à 500 ft
< 800m
< 200 ft
Symboles :   Orages  Brouillard  Fortes neiges  Fortes précipitations  Vent > 20 kt
SIGMETs :   Divers  Orages  Givrage  Turbulence  Onde Orograph.  Cendres Volcan.







- Altitude de l'aérodrome : 219 ft
- Code IATA : DNR
- Voir les cartes d'approche


LFRD - Dinard

DERNIER METAR :
  • 171100Z AUTO 31013KT 280V340 9999 FEW028 SCT041 19/12 Q1024 NOSIG

METARs EXPIRÉS :
  • 171030Z AUTO 31012KT 9999 FEW025 19/12 Q1024 NOSIG
  • 171000Z AUTO 29012KT 9999 FEW023 18/12 Q1023 NOSIG
  • 170930Z AUTO 31012KT 9999 FEW024 18/13 Q1023 NOSIG
  • 170900Z AUTO 33011KT 9999 FEW026 18/13 Q1023 NOSIG
  • 170830Z AUTO 32009KT 280V350 9999 FEW028 18/13 Q1023 NOSIG

TAF TAF LFRD
Valide du 17 à 06h jusqu'au 18 à 06h UTC


170500Z 1706/1806 31010KT 9999 BKN025
BECMG 1722/1724 24005KT
ATIS : +33 2 99 16 81 50
Pas de NOTAMs connus pour ce terrain.



MET'MAP, la Météo Aéronautique d'un coup d'oeil ! - Copyright ORBIFLY Décembre 2007 - Disclaimer

ORBIFLY MET'MAP TEAM :

Programmation & Développement : Alexandra Zaïnal
Conception & Développement : Baudouin d'Aumeries
Co-Programmation & Développement : Marc-Olivier Méhu
Soutien technique & logistique : Manuel Goepfert

Contact : metmap@orbifly.com




SOURCES & CREDITS :

   NOAA